createdAt,value
2022-12-04T00:01:29.560Z,26.17
2022-12-04T00:03:59.724Z,27.33
2022-12-04T00:06:29.702Z,28.67
2022-12-04T00:08:58.150Z,27.15
2022-12-04T00:11:28.845Z,27.13
2022-12-04T00:14:06.157Z,26.90
2022-12-04T00:16:35.432Z,26.60
2022-12-04T00:19:04.305Z,28.48
2022-12-04T00:21:32.447Z,23.05
2022-12-04T00:24:00.566Z,28.05
2022-12-04T00:26:31.080Z,28.45
2022-12-04T00:29:01.044Z,27.08
2022-12-04T00:31:31.335Z,26.83
2022-12-04T00:34:02.198Z,26.73
2022-12-04T00:36:31.345Z,25.58
2022-12-04T00:39:01.125Z,26.30
2022-12-04T00:41:30.918Z,25.63
2022-12-04T00:44:01.762Z,29.63
2022-12-04T00:46:30.199Z,27.00
2022-12-04T00:48:59.519Z,26.75
2022-12-04T00:51:27.737Z,28.25
2022-12-04T00:53:56.634Z,28.02
2022-12-04T00:56:26.858Z,26.02
2022-12-04T00:58:55.627Z,26.75
2022-12-04T01:01:26.412Z,21.35
2022-12-04T01:03:56.129Z,24.83
2022-12-04T01:06:26.247Z,26.85
2022-12-04T01:08:56.184Z,25.02
2022-12-04T01:11:26.602Z,27.25
2022-12-04T01:13:55.190Z,27.80
2022-12-04T01:16:27.437Z,27.97
2022-12-04T01:18:56.039Z,27.60
2022-12-04T01:21:24.510Z,21.27
2022-12-04T01:23:53.597Z,27.85
2022-12-04T01:26:21.759Z,28.67
2022-12-04T01:28:50.274Z,28.27
2022-12-04T01:31:20.991Z,30.63
2022-12-04T01:33:51.483Z,28.70
2022-12-04T01:36:22.916Z,25.08
2022-12-04T01:38:51.575Z,27.50
2022-12-04T01:41:22.187Z,22.13
2022-12-04T01:44:09.102Z,25.27
2022-12-04T01:46:37.326Z,27.95
2022-12-04T01:49:09.275Z,25.63
2022-12-04T01:51:41.050Z,27.77
2022-12-04T01:54:11.998Z,27.90
2022-12-04T01:56:45.280Z,25.15
2022-12-04T01:59:16.831Z,28.88
2022-12-04T02:01:53.884Z,28.83
2022-12-04T02:04:23.975Z,24.35
2022-12-04T02:06:52.290Z,28.42
2022-12-04T02:09:26.820Z,27.25
2022-12-04T02:12:04.511Z,27.17
2022-12-04T02:14:43.567Z,26.23
2022-12-04T02:17:19.368Z,25.75
2022-12-04T02:20:20.053Z,28.75
2022-12-04T02:23:19.714Z,26.83
2022-12-04T02:25:55.393Z,28.98
2022-12-04T02:28:29.335Z,26.98
2022-12-04T02:31:01.621Z,28.50
2022-12-04T02:33:34.491Z,26.95
2022-12-04T02:36:07.803Z,28.17
2022-12-04T02:38:38.766Z,29.38
2022-12-04T02:41:12.092Z,30.27
2022-12-04T02:43:45.846Z,30.73
2022-12-04T02:46:20.073Z,28.67
2022-12-04T02:48:52.995Z,32.47
2022-12-04T02:51:24.998Z,30.02
2022-12-04T02:53:58.002Z,28.60
2022-12-04T02:56:29.999Z,30.52
2022-12-04T02:59:02.405Z,32.00
2022-12-04T03:01:36.063Z,28.05
2022-12-04T03:04:10.202Z,30.10
2022-12-04T03:06:41.395Z,27.83
2022-12-04T03:09:13.668Z,25.65
2022-12-04T03:11:46.116Z,27.20
2022-12-04T03:14:19.259Z,27.83
2022-12-04T03:16:49.391Z,27.67
2022-12-04T03:19:22.510Z,28.75
2022-12-04T03:21:55.292Z,27.23
2022-12-04T03:24:28.003Z,28.23
2022-12-04T03:27:01.397Z,27.05
2022-12-04T03:29:36.871Z,29.83
2022-12-04T03:32:11.498Z,28.98
2022-12-04T03:34:49.511Z,28.77
2022-12-04T03:37:21.355Z,29.27
2022-12-04T03:39:58.289Z,28.67
2022-12-04T03:42:29.603Z,29.70
2022-12-04T03:45:04.406Z,28.30
2022-12-04T03:47:39.026Z,31.02
2022-12-04T03:50:11.355Z,28.27
2022-12-04T03:52:49.707Z,25.35
2022-12-04T03:55:26.391Z,30.30
2022-12-04T03:58:00.628Z,28.27
2022-12-04T04:00:31.526Z,27.63
2022-12-04T04:03:05.147Z,28.52
2022-12-04T04:05:35.635Z,28.60
2022-12-04T04:08:22.617Z,29.08
2022-12-04T04:10:51.864Z,27.83
2022-12-04T04:13:41.283Z,29.85
2022-12-04T04:19:17.122Z,28.77
2022-12-04T04:22:05.213Z,26.50
2022-12-04T04:24:40.531Z,29.70
2022-12-04T04:27:08.637Z,27.90
2022-12-04T04:29:37.479Z,27.92
2022-12-04T04:32:15.557Z,29.20
2022-12-04T04:34:51.805Z,27.60
2022-12-04T04:37:28.987Z,29.55
2022-12-04T04:40:03.091Z,30.33
2022-12-04T04:42:36.083Z,28.73
2022-12-04T04:45:12.669Z,30.08
2022-12-04T04:47:46.576Z,29.48
2022-12-04T04:50:16.247Z,29.20
2022-12-04T04:55:17.117Z,27.05
2022-12-04T04:57:45.300Z,28.45
2022-12-04T05:00:17.266Z,27.27
2022-12-04T05:02:48.684Z,27.85
2022-12-04T05:05:17.568Z,29.95
2022-12-04T05:07:46.002Z,28.65
2022-12-04T05:10:14.164Z,27.60
2022-12-04T05:12:42.300Z,25.48
2022-12-04T05:15:11.374Z,28.70
2022-12-04T05:17:39.588Z,28.55
2022-12-04T05:20:11.309Z,28.50
2022-12-04T05:22:39.642Z,32.13
2022-12-04T05:25:08.734Z,28.95
2022-12-04T05:27:37.078Z,29.27
2022-12-04T05:30:06.421Z,28.73
2022-12-04T05:32:34.639Z,28.77
2022-12-04T05:35:07.731Z,30.00
2022-12-04T05:37:41.601Z,28.98
2022-12-04T05:40:11.155Z,28.58
2022-12-04T05:45:08.015Z,28.83
2022-12-04T05:47:39.451Z,30.27
2022-12-04T05:50:09.369Z,26.98
2022-12-04T05:52:39.315Z,29.52
2022-12-04T05:55:08.115Z,29.33
2022-12-04T05:57:36.203Z,29.92
2022-12-04T06:00:05.033Z,32.17
2022-12-04T06:02:35.743Z,27.88
2022-12-04T06:05:04.073Z,28.73
2022-12-04T06:07:32.641Z,27.85
2022-12-04T06:10:02.238Z,28.03
2022-12-04T06:14:59.682Z,23.63
2022-12-04T06:17:27.827Z,28.42
2022-12-04T06:19:56.500Z,27.88
2022-12-04T06:22:24.781Z,27.65
2022-12-04T06:24:52.884Z,29.02
2022-12-04T06:27:27.708Z,28.10
2022-12-04T06:29:56.786Z,26.58
2022-12-04T06:32:25.105Z,21.98
2022-12-04T06:34:53.836Z,27.42
2022-12-04T06:37:24.215Z,25.17
2022-12-04T06:39:52.353Z,27.92
2022-12-04T06:42:22.963Z,27.27
2022-12-04T06:47:18.962Z,26.13
2022-12-04T06:49:50.671Z,24.98
2022-12-04T06:52:19.051Z,23.50
2022-12-04T06:54:47.209Z,24.40
2022-12-04T06:57:15.574Z,25.13
2022-12-04T06:59:45.254Z,24.08
2022-12-04T07:02:13.394Z,23.15
2022-12-04T07:04:41.778Z,26.77
2022-12-04T07:07:10.734Z,24.20
2022-12-04T07:09:39.281Z,26.38
2022-12-04T07:12:08.115Z,26.17
2022-12-04T07:14:36.247Z,23.58
2022-12-04T07:17:05.748Z,25.17
2022-12-04T07:22:02.190Z,23.88
2022-12-04T07:24:30.305Z,24.52
2022-12-04T07:26:58.402Z,25.15
2022-12-04T07:29:26.486Z,25.48
2022-12-04T07:31:54.648Z,25.48
2022-12-04T07:34:24.302Z,26.17
2022-12-04T07:39:20.703Z,23.13
2022-12-04T07:41:48.894Z,25.58
2022-12-04T07:44:17.107Z,24.67
2022-12-04T07:46:45.355Z,25.60
2022-12-04T07:49:13.946Z,24.02
2022-12-04T07:51:43.426Z,22.70
2022-12-04T07:54:11.512Z,25.15
2022-12-04T07:56:39.607Z,23.85
2022-12-04T07:59:07.700Z,24.50
2022-12-04T08:01:36.385Z,25.40
2022-12-04T08:04:04.870Z,26.30
2022-12-04T08:06:35.212Z,25.15
2022-12-04T08:09:09.513Z,24.77
2022-12-04T08:11:38.065Z,28.00
2022-12-04T08:14:08.871Z,27.33
2022-12-04T08:16:37.392Z,26.77
2022-12-04T08:19:05.802Z,27.75
2022-12-04T08:21:34.773Z,26.48
2022-12-04T08:24:04.481Z,25.45
2022-12-04T08:26:34.332Z,28.30
2022-12-04T08:29:02.897Z,28.63
2022-12-04T08:31:33.899Z,28.98
2022-12-04T08:34:03.874Z,28.38
2022-12-04T08:36:32.899Z,29.85
2022-12-04T08:39:01.122Z,21.83
2022-12-04T08:41:30.818Z,29.95
2022-12-04T08:43:59.547Z,29.05
2022-12-04T08:46:28.968Z,31.40
2022-12-04T08:51:27.629Z,28.30
2022-12-04T08:53:57.433Z,30.55
2022-12-04T08:56:25.984Z,32.05
2022-12-04T08:58:56.910Z,31.35
2022-12-04T09:01:25.769Z,28.98
2022-12-04T09:03:54.349Z,25.92
2022-12-04T09:06:23.488Z,33.47
2022-12-04T09:08:54.277Z,32.97
2022-12-04T09:11:24.587Z,31.27
2022-12-04T09:13:53.123Z,35.05
2022-12-04T09:16:24.944Z,32.70
2022-12-04T09:18:53.748Z,31.85
2022-12-04T09:21:23.287Z,33.33
2022-12-04T09:26:23.509Z,32.47
2022-12-04T09:28:53.289Z,30.67
2022-12-04T09:31:23.613Z,32.00
2022-12-04T09:33:52.166Z,30.75
2022-12-04T09:36:20.653Z,33.78
2022-12-04T09:38:50.448Z,32.88
2022-12-04T09:41:40.085Z,33.17
2022-12-04T09:44:14.872Z,32.90
2022-12-04T09:46:51.350Z,32.53
2022-12-04T09:49:23.822Z,33.40
2022-12-04T09:51:53.218Z,32.22
2022-12-04T09:54:24.908Z,31.38
2022-12-04T09:56:56.489Z,30.15
2022-12-04T09:59:27.283Z,31.10
2022-12-04T10:02:03.669Z,31.13
2022-12-04T10:04:31.990Z,34.00
2022-12-04T10:07:08.154Z,33.22
2022-12-04T10:09:44.855Z,32.53
2022-12-04T10:12:21.341Z,29.40
2022-12-04T10:15:08.668Z,30.27
2022-12-04T10:18:04.279Z,30.50
2022-12-04T10:20:56.497Z,33.95
2022-12-04T10:23:33.873Z,30.02
2022-12-04T10:26:05.147Z,28.80
2022-12-04T10:28:38.081Z,27.70
2022-12-04T10:31:11.007Z,27.50
2022-12-04T10:33:45.111Z,29.42
2022-12-04T10:36:17.120Z,29.90
2022-12-04T10:38:51.027Z,28.65
2022-12-04T10:41:28.854Z,30.85
2022-12-04T10:43:57.387Z,32.20
2022-12-04T10:46:28.332Z,32.08
2022-12-04T10:49:01.127Z,31.65
2022-12-04T10:51:36.881Z,30.63
2022-12-04T10:54:17.542Z,30.55
2022-12-04T10:56:52.707Z,30.65
2022-12-04T10:59:20.869Z,30.02
2022-12-04T11:01:49.276Z,31.33
2022-12-04T11:04:25.717Z,30.05
2022-12-04T11:07:04.223Z,31.77
2022-12-04T11:09:33.188Z,31.75
2022-12-04T11:12:11.285Z,28.35
2022-12-04T11:14:45.516Z,33.20
2022-12-04T11:17:19.918Z,30.45
2022-12-04T11:19:59.700Z,30.73
2022-12-04T11:22:28.022Z,32.25
2022-12-04T11:24:59.259Z,30.23
2022-12-04T11:27:31.623Z,31.95
2022-12-04T11:30:02.562Z,30.40
2022-12-04T11:32:33.522Z,33.28
2022-12-04T11:35:08.480Z,37.53
2022-12-04T11:37:42.057Z,27.10
2022-12-04T11:40:19.417Z,38.75
2022-12-04T11:43:00.758Z,26.23
2022-12-04T11:45:28.906Z,27.77
2022-12-04T11:47:59.137Z,31.00
2022-12-04T11:50:39.003Z,31.58
2022-12-04T11:53:15.639Z,27.08
2022-12-04T11:56:02.987Z,27.77
2022-12-04T11:58:46.558Z,31.20
2022-12-04T12:01:27.312Z,27.55
2022-12-04T12:04:19.312Z,29.75
2022-12-04T12:07:00.876Z,28.33
2022-12-04T12:09:36.151Z,26.33
2022-12-04T12:12:09.675Z,28.90
2022-12-04T12:14:46.837Z,28.98
2022-12-04T12:17:23.549Z,30.30
2022-12-04T12:20:06.748Z,29.33
2022-12-04T12:22:55.300Z,25.08
2022-12-04T12:25:28.469Z,26.55
2022-12-04T12:28:12.540Z,27.80
2022-12-04T12:30:48.273Z,26.38
2022-12-04T12:33:21.138Z,29.10
2022-12-04T12:35:57.426Z,29.48
2022-12-04T12:38:33.683Z,28.88
2022-12-04T12:41:06.417Z,31.35
2022-12-04T12:43:37.915Z,30.00
2022-12-04T12:46:13.488Z,27.25
2022-12-04T12:48:48.033Z,26.88
2022-12-04T12:51:30.526Z,28.77
2022-12-04T12:54:10.554Z,28.23
2022-12-04T12:56:47.909Z,28.33
2022-12-04T12:59:21.973Z,28.45
2022-12-04T13:02:00.172Z,29.27
2022-12-04T13:04:35.069Z,23.88
2022-12-04T13:07:15.882Z,29.05
2022-12-04T13:09:51.606Z,28.42
2022-12-04T13:12:21.657Z,28.05
2022-12-04T13:14:49.977Z,27.00
2022-12-04T13:17:22.493Z,25.70
2022-12-04T13:19:54.747Z,27.77
2022-12-04T13:22:31.766Z,28.40
2022-12-04T13:25:22.815Z,29.33
2022-12-04T13:28:02.872Z,28.67
2022-12-04T13:30:38.188Z,27.60
2022-12-04T13:33:22.324Z,30.23
2022-12-04T13:36:16.493Z,29.90
2022-12-04T13:38:59.591Z,26.60
2022-12-04T13:41:29.990Z,29.75
2022-12-04T13:44:02.817Z,27.58
2022-12-04T13:46:36.496Z,27.52
2022-12-04T13:49:25.246Z,29.33
2022-12-04T13:51:54.850Z,28.08
2022-12-04T13:57:10.607Z,26.92
2022-12-04T13:59:40.506Z,29.88
2022-12-04T14:02:28.722Z,28.67
2022-12-04T14:05:02.517Z,27.10
2022-12-04T14:07:34.247Z,29.40
2022-12-04T14:10:05.279Z,29.25
2022-12-04T14:12:38.325Z,28.38
2022-12-04T14:15:09.030Z,27.52
2022-12-04T14:17:40.698Z,27.42
2022-12-04T14:20:23.019Z,27.13
2022-12-04T14:22:51.319Z,29.95
2022-12-04T14:25:40.896Z,31.75
2022-12-04T14:31:15.720Z,27.85
2022-12-04T14:33:48.335Z,27.17
2022-12-04T14:36:21.410Z,27.90
2022-12-04T14:38:57.841Z,27.27
2022-12-04T14:41:27.210Z,28.27
2022-12-04T14:43:58.357Z,27.60
2022-12-04T14:46:35.132Z,28.20
2022-12-04T14:49:18.390Z,28.45
2022-12-04T14:51:56.994Z,26.75
2022-12-04T14:54:31.597Z,27.17
2022-12-04T14:57:14.945Z,29.52
2022-12-04T14:59:46.498Z,28.60
2022-12-04T15:02:18.676Z,32.60
2022-12-04T15:04:49.225Z,30.70
2022-12-04T15:07:22.779Z,31.35
2022-12-04T15:10:13.042Z,28.88
2022-12-04T15:12:46.024Z,27.42
2022-12-04T15:15:21.976Z,33.72
2022-12-04T15:18:01.214Z,26.60
2022-12-04T15:20:37.569Z,30.80
2022-12-04T15:23:07.382Z,28.13
2022-12-04T15:25:41.406Z,27.50
2022-12-04T15:28:15.208Z,32.22
2022-12-04T15:30:46.266Z,29.20
2022-12-04T15:33:23.475Z,27.20
2022-12-04T15:35:56.763Z,28.00
2022-12-04T15:38:25.459Z,28.25
2022-12-04T15:40:56.448Z,28.80
2022-12-04T15:43:29.932Z,26.77
2022-12-04T15:46:00.094Z,27.70
2022-12-04T15:48:29.881Z,27.55
2022-12-04T15:51:03.991Z,27.48
2022-12-04T15:53:34.476Z,26.88
2022-12-04T15:56:05.791Z,27.13
2022-12-04T15:58:35.365Z,25.00
2022-12-04T16:03:37.942Z,26.00
2022-12-04T16:06:16.972Z,24.83
2022-12-04T16:08:47.474Z,25.83
2022-12-04T16:11:33.710Z,25.83
2022-12-04T16:14:15.208Z,28.48
2022-12-04T16:16:46.803Z,25.70
2022-12-04T16:19:20.244Z,25.83
2022-12-04T16:21:48.685Z,25.45
2022-12-04T16:24:16.790Z,26.23
2022-12-04T16:26:44.875Z,21.88
2022-12-04T16:29:12.962Z,22.10
2022-12-04T16:31:41.235Z,25.80
2022-12-04T16:34:13.383Z,25.63
2022-12-04T16:36:42.163Z,24.10
2022-12-04T16:39:10.249Z,27.70
2022-12-04T16:41:38.559Z,25.67
2022-12-04T16:44:14.752Z,26.88
2022-12-04T16:46:43.679Z,24.67
2022-12-04T16:49:14.652Z,27.98
2022-12-04T16:51:46.856Z,27.42
2022-12-04T16:54:14.965Z,26.35
2022-12-04T16:56:43.456Z,27.17
2022-12-04T16:59:12.549Z,25.63
2022-12-04T17:01:45.420Z,25.52
2022-12-04T17:04:15.485Z,26.85
2022-12-04T17:06:44.624Z,25.58
2022-12-04T17:09:13.787Z,27.20
2022-12-04T17:11:42.253Z,26.95
2022-12-04T17:14:10.665Z,27.17
2022-12-04T17:16:42.726Z,30.05
2022-12-04T17:19:12.774Z,25.90
2022-12-04T17:21:42.642Z,28.38
2022-12-04T17:24:10.758Z,24.90
2022-12-04T17:26:38.858Z,25.65
2022-12-04T17:29:07.051Z,27.08
2022-12-04T17:31:35.198Z,27.42
2022-12-04T17:34:03.406Z,25.52
2022-12-04T17:36:31.585Z,25.90
2022-12-04T17:39:02.556Z,23.30
2022-12-04T17:41:30.883Z,28.80
2022-12-04T17:44:01.613Z,24.52
2022-12-04T17:46:29.778Z,23.73
2022-12-04T17:49:01.563Z,25.40
2022-12-04T17:51:34.999Z,24.95
2022-12-04T17:56:32.858Z,25.45
2022-12-04T17:59:01.113Z,25.70
2022-12-04T18:01:30.682Z,24.33
2022-12-04T18:06:29.577Z,24.47
2022-12-04T18:08:57.940Z,25.92
2022-12-04T18:11:29.668Z,25.55
2022-12-04T18:13:59.590Z,26.27
2022-12-04T18:16:29.806Z,27.92
2022-12-04T18:18:59.838Z,27.17
2022-12-04T18:21:28.436Z,26.45
2022-12-04T18:23:58.424Z,27.03
2022-12-04T18:26:29.109Z,24.30
2022-12-04T18:28:57.192Z,25.10
2022-12-04T18:31:25.431Z,27.40
2022-12-04T18:33:53.800Z,28.48
2022-12-04T18:36:23.964Z,25.17
2022-12-04T18:38:56.301Z,26.23
2022-12-04T18:41:25.255Z,24.00
2022-12-04T18:43:55.362Z,17.33
2022-12-04T18:46:24.325Z,24.60
2022-12-04T18:48:55.432Z,18.65
2022-12-04T18:51:27.135Z,22.30
2022-12-04T18:53:58.133Z,27.08
2022-12-04T18:56:26.731Z,25.13
2022-12-04T18:58:59.714Z,21.37
2022-12-04T19:01:29.340Z,24.75
2022-12-04T19:03:59.133Z,24.77
2022-12-04T19:06:31.810Z,22.52
2022-12-04T19:09:01.052Z,25.25
2022-12-04T19:11:29.288Z,24.73
2022-12-04T19:13:59.893Z,22.10
2022-12-04T19:16:28.791Z,25.15
2022-12-04T19:18:57.856Z,24.17
2022-12-04T19:21:26.403Z,23.52
2022-12-04T19:23:58.189Z,19.40
2022-12-04T19:26:26.757Z,24.08
2022-12-04T19:28:55.336Z,22.17
2022-12-04T19:31:27.495Z,25.17
2022-12-04T19:33:57.737Z,23.73
2022-12-04T19:36:27.123Z,22.77
2022-12-04T19:38:55.426Z,22.48
2022-12-04T19:41:25.748Z,23.80
2022-12-04T19:43:56.386Z,22.55
2022-12-04T19:46:30.137Z,24.50
2022-12-04T19:49:01.696Z,24.25
2022-12-04T19:51:32.089Z,24.33
2022-12-04T19:54:01.179Z,23.30
2022-12-04T19:56:30.730Z,21.85
2022-12-04T20:01:38.730Z,22.83
2022-12-04T20:04:09.252Z,23.35
2022-12-04T20:06:42.188Z,24.27
2022-12-04T20:09:13.170Z,24.77
2022-12-04T20:11:43.445Z,25.08
2022-12-04T20:14:11.582Z,24.15
2022-12-04T20:16:42.123Z,24.27
2022-12-04T20:19:14.530Z,25.65
2022-12-04T20:21:42.646Z,23.65
2022-12-04T20:24:13.287Z,25.02
2022-12-04T20:26:43.394Z,22.90
2022-12-04T20:29:14.014Z,24.08
2022-12-04T20:31:45.934Z,24.25
2022-12-04T20:34:16.342Z,23.20
2022-12-04T20:36:47.098Z,25.38
2022-12-04T20:39:16.505Z,24.75
2022-12-04T20:41:44.861Z,22.88
2022-12-04T20:44:16.157Z,23.30
2022-12-04T20:46:46.093Z,22.25
2022-12-04T20:49:21.190Z,23.45
2022-12-04T20:51:51.301Z,23.17
2022-12-04T20:54:21.165Z,22.17
2022-12-04T20:56:50.016Z,21.92
2022-12-04T20:59:19.542Z,21.65
2022-12-04T21:04:18.665Z,19.95
2022-12-04T21:06:47.654Z,17.00
2022-12-04T21:09:17.853Z,21.55
2022-12-04T21:11:47.934Z,21.48
2022-12-04T21:14:36.969Z,21.02
2022-12-04T21:17:09.352Z,21.70
2022-12-04T21:19:37.791Z,22.65
2022-12-04T21:22:08.823Z,21.35
2022-12-04T21:24:38.845Z,20.88
2022-12-04T21:27:08.023Z,22.15
2022-12-04T21:29:37.082Z,22.77
2022-12-04T21:32:07.963Z,21.08
2022-12-04T21:34:36.563Z,21.63
2022-12-04T21:37:04.953Z,15.87
2022-12-04T21:39:34.010Z,22.92
2022-12-04T21:42:19.679Z,21.55
2022-12-04T21:44:47.831Z,22.35
2022-12-04T21:47:17.378Z,21.08
2022-12-04T21:52:13.507Z,20.33
2022-12-04T21:54:41.568Z,20.38
2022-12-04T21:57:09.706Z,22.10
2022-12-04T21:59:37.815Z,21.60
2022-12-04T22:02:06.010Z,22.25
2022-12-04T22:04:35.904Z,22.73
2022-12-04T22:07:04.178Z,22.83
2022-12-04T22:09:32.450Z,22.67
2022-12-04T22:12:00.933Z,21.75
2022-12-04T22:14:29.046Z,21.15
2022-12-04T22:16:57.111Z,19.55
2022-12-04T22:19:25.440Z,22.63
2022-12-04T22:21:55.010Z,21.65
2022-12-04T22:26:51.130Z,19.15
2022-12-04T22:29:49.651Z,20.10
2022-12-04T22:32:07.364Z,19.02
2022-12-04T22:34:35.552Z,21.38
2022-12-04T22:37:05.035Z,21.52
2022-12-04T22:39:33.810Z,19.85
2022-12-04T22:42:02.078Z,16.35
2022-12-04T22:44:30.170Z,19.63
2022-12-04T22:46:58.325Z,20.33
2022-12-04T22:49:26.714Z,21.23
2022-12-04T22:51:54.791Z,20.83
2022-12-04T22:54:24.355Z,21.13
2022-12-04T22:59:20.355Z,17.50
2022-12-04T23:01:48.448Z,18.60
2022-12-04T23:04:16.755Z,20.17
2022-12-04T23:06:44.890Z,19.60
2022-12-04T23:09:15.070Z,19.88
2022-12-04T23:11:45.485Z,20.45
2022-12-04T23:14:15.601Z,21.30
2022-12-04T23:16:44.823Z,19.65
2022-12-04T23:19:14.769Z,20.42
2022-12-04T23:21:43.136Z,20.15
2022-12-04T23:24:12.241Z,19.67
2022-12-04T23:26:43.557Z,22.20
2022-12-04T23:29:44.400Z,21.92
2022-12-04T23:32:02.170Z,19.13
2022-12-04T23:34:30.660Z,21.83
2022-12-04T23:36:58.778Z,21.38
2022-12-04T23:39:26.933Z,21.30
2022-12-04T23:41:55.050Z,21.30
2022-12-04T23:44:24.900Z,20.17
2022-12-04T23:46:53.371Z,21.40
2022-12-04T23:49:21.610Z,21.65
2022-12-04T23:51:49.822Z,20.63
2022-12-04T23:54:18.004Z,21.83
2022-12-04T23:56:46.239Z,22.67
2022-12-04T23:59:14.337Z,22.95
